^^
Station Historical Data
Daily Summary for May 20, 2017 Units:  Both    English   Metric
« Previous Day
Next Day »
Daily Weekly Monthly Yearly Custom
  High: Low: Average:
Temperature: 73.2 °F /  22.9 °C 45.5 °F /  7.5 °C 57.9 °F /  14.4 °C
Dew Point: 37.4 °F /  3 °C 30.9 °F /  -0.6 °C 33.7 °F /  0.9 °C
Humidity: 59% 23% 42%
Wind Speed: 11.0mph /  17.7km/h - 1.3mph /  2.1km/h
Wind Gust: 14.0mph /  22.5km/h - -
Wind- - East
Pressure: 30.52 in /  1033.4 hPa 30.39 in /  1029 hPa -
Precipitation: 0.00 in /  0 mm    
Historical Graphs
 
 
Tabular Data for May 20, 2017
Time Temperature Dew Point Pressure Wind Wind Speed Wind Gust Humidity Rainfall Rate (Hourly) solar Conditions
00:05 50.0 °F /  10 °C 33.1 °F /  0.6 °C 30.47in /  1031.7hPa Calm   2.0mph /  3.2km/h 52% 0.00in /  0mm 0.0 W/m2
00:11 50.0 °F /  10 °C 33.1 °F /  0.6 °C 30.48in /  1032.1hPa Calm   2.0mph /  3.2km/h 52% 0.00in /  0mm 0.0 W/m2
00:17 50.0 °F /  10 °C 33.1 °F /  0.6 °C 30.48in /  1032.1hPa Calm   1.0mph /  1.6km/h 52% 0.00in /  0mm 0.0 W/m2
00:23 49.8 °F /  9.9 °C 32.9 °F /  0.5 °C 30.47in /  1031.7hPa Calm     52% 0.00in /  0mm 0.0 W/m2
00:29 49.8 °F /  9.9 °C 32.9 °F /  0.5 °C 30.47in /  1031.7hPa Calm     52% 0.00in /  0mm 0.0 W/m2
00:36 49.8 °F /  9.9 °C 32.4 °F /  0.2 °C 30.47in /  1031.7hPa Calm   1.0mph /  1.6km/h 51% 0.00in /  0mm 0.0 W/m2
00:42 49.8 °F /  9.9 °C 32.4 °F /  0.2 °C 30.48in /  1032.1hPa Calm   3.0mph /  4.8km/h 51% 0.00in /  0mm 0.0 W/m2
00:48 50.0 °F /  10 °C 32.5 °F /  0.3 °C 30.48in /  1032.1hPa ENE 0.9mph /  1.4km/h 4.0mph /  6.4km/h 51% 0.00in /  0mm 0.0 W/m2
00:54 49.8 °F /  9.9 °C 32.4 °F /  0.2 °C 30.48in /  1032.1hPa Calm     51% 0.00in /  0mm 0.0 W/m2
01:00 49.8 °F /  9.9 °C 32.9 °F /  0.5 °C 30.48in /  1032.1hPa Calm   1.0mph /  1.6km/h 52% 0.00in /  0mm 0.0 W/m2
01:06 49.6 °F /  9.8 °C 32.7 °F /  0.4 °C 30.48in /  1032.1hPa East 0.9mph /  1.4km/h 2.0mph /  3.2km/h 52% 0.00in /  0mm 0.0 W/m2
01:12 49.5 °F /  9.7 °C 32.5 °F /  0.3 °C 30.48in /  1032.1hPa Calm   2.0mph /  3.2km/h 52% 0.00in /  0mm 0.0 W/m2
01:18 49.5 °F /  9.7 °C 32.5 °F /  0.3 °C 30.48in /  1032.1hPa ESE 5.0mph /  8km/h 5.0mph /  8km/h 52% 0.00in /  0mm 0.0 W/m2
01:24 49.3 °F /  9.6 °C 32.4 °F /  0.2 °C 30.48in /  1032.1hPa Calm   1.0mph /  1.6km/h 52% 0.00in /  0mm 0.0 W/m2
01:30 49.1 °F /  9.5 °C 32.7 °F /  0.4 °C 30.48in /  1032.1hPa ENE 0.9mph /  1.4km/h 2.0mph /  3.2km/h 53% 0.00in /  0mm 0.0 W/m2
01:36 48.9 °F /  9.4 °C 32.5 °F /  0.3 °C 30.48in /  1032.1hPa Calm   2.0mph /  3.2km/h 53% 0.00in /  0mm 0.0 W/m2
01:43 48.7 °F /  9.3 °C 32.4 °F /  0.2 °C 30.48in /  1032.1hPa Calm   2.0mph /  3.2km/h 53% 0.00in /  0mm 0.0 W/m2
01:49 48.6 °F /  9.2 °C 32.2 °F /  0.1 °C 30.48in /  1032.1hPa ENE 4.0mph /  6.4km/h 4.0mph /  6.4km/h 53% 0.00in /  0mm 0.0 W/m2
01:55 48.6 °F /  9.2 °C 32.2 °F /  0.1 °C 30.47in /  1031.7hPa Calm   4.0mph /  6.4km/h 53% 0.00in /  0mm 0.0 W/m2
02:01 48.6 °F /  9.2 °C 32.2 °F /  0.1 °C 30.47in /  1031.7hPa ENE 0.9mph /  1.4km/h 1.0mph /  1.6km/h 53% 0.00in /  0mm 0.0 W/m2
02:07 48.4 °F /  9.1 °C 32.0 °F /  0 °C 30.48in /  1032.1hPa Calm   3.0mph /  4.8km/h 53% 0.00in /  0mm 0.0 W/m2
02:13 48.4 °F /  9.1 °C 32.0 °F /  0 °C 30.47in /  1031.7hPa ENE 0.9mph /  1.4km/h 3.0mph /  4.8km/h 53% 0.00in /  0mm 0.0 W/m2
02:19 48.2 °F /  9 °C 31.8 °F /  -0.1 °C 30.47in /  1031.7hPa Calm   3.0mph /  4.8km/h 53% 0.00in /  0mm 0.0 W/m2
02:25 48.0 °F /  8.9 °C 32.2 °F /  0.1 °C 30.47in /  1031.7hPa Calm   3.0mph /  4.8km/h 54% 0.00in /  0mm 0.0 W/m2
02:31 48.0 °F /  8.9 °C 31.6 °F /  -0.2 °C 30.47in /  1031.7hPa ENE 0.9mph /  1.4km/h 1.0mph /  1.6km/h 53% 0.00in /  0mm 0.0 W/m2
02:37 48.0 °F /  8.9 °C 31.6 °F /  -0.2 °C 30.47in /  1031.7hPa Calm   2.0mph /  3.2km/h 53% 0.00in /  0mm 0.0 W/m2
02:43 47.8 °F /  8.8 °C 32.0 °F /  0 °C 30.47in /  1031.7hPa Calm   2.0mph /  3.2km/h 54% 0.00in /  0mm 0.0 W/m2
02:49 47.8 °F /  8.8 °C 32.0 °F /  0 °C 30.47in /  1031.7hPa East 0.9mph /  1.4km/h 2.0mph /  3.2km/h 54% 0.00in /  0mm 0.0 W/m2
02:55 47.7 °F /  8.7 °C 31.8 °F /  -0.1 °C 30.47in /  1031.7hPa Calm   2.0mph /  3.2km/h 54% 0.00in /  0mm 0.0 W/m2
03:01 47.7 °F /  8.7 °C 31.8 °F /  -0.1 °C 30.47in /  1031.7hPa ENE 0.9mph /  1.4km/h 1.0mph /  1.6km/h 54% 0.00in /  0mm 0.0 W/m2
03:07 47.5 °F /  8.6 °C 32.2 °F /  0.1 °C 30.47in /  1031.7hPa East 0.9mph /  1.4km/h 1.0mph /  1.6km/h 55% 0.00in /  0mm 0.0 W/m2
03:13 47.3 °F /  8.5 °C 32.0 °F /  0 °C 30.47in /  1031.7hPa Calm   1.0mph /  1.6km/h 55% 0.00in /  0mm 0.0 W/m2
03:19 47.1 °F /  8.4 °C 31.8 °F /  -0.1 °C 30.47in /  1031.7hPa Calm   1.0mph /  1.6km/h 55% 0.00in /  0mm 0.0 W/m2
03:25 46.9 °F /  8.3 °C 31.6 °F /  -0.2 °C 30.46in /  1031.4hPa Calm   1.0mph /  1.6km/h 55% 0.00in /  0mm 0.0 W/m2
03:31 46.9 °F /  8.3 °C 31.6 °F /  -0.2 °C 30.46in /  1031.4hPa ENE 0.9mph /  1.4km/h 2.0mph /  3.2km/h 55% 0.00in /  0mm 0.0 W/m2
03:37 46.8 °F /  8.2 °C 31.5 °F /  -0.3 °C 30.46in /  1031.4hPa Calm   2.0mph /  3.2km/h 55% 0.00in /  0mm 0.0 W/m2
03:43 46.8 °F /  8.2 °C 31.8 °F /  -0.1 °C 30.46in /  1031.4hPa East 2.0mph /  3.2km/h 2.0mph /  3.2km/h 56% 0.00in /  0mm 0.0 W/m2
03:49 46.6 °F /  8.1 °C 31.6 °F /  -0.2 °C 30.46in /  1031.4hPa Calm   2.0mph /  3.2km/h 56% 0.00in /  0mm 0.0 W/m2
03:55 46.6 °F /  8.1 °C 31.6 °F /  -0.2 °C 30.46in /  1031.4hPa Calm   3.0mph /  4.8km/h 56% 0.00in /  0mm 0.0 W/m2
04:01 46.4 °F /  8 °C 31.6 °F /  -0.2 °C 30.45in /  1031hPa ESE 2.0mph /  3.2km/h 3.0mph /  4.8km/h 56% 0.00in /  0mm 0.0 W/m2
04:07 46.4 °F /  8 °C 31.6 °F /  -0.2 °C 30.46in /  1031.4hPa Calm   3.0mph /  4.8km/h 56% 0.00in /  0mm 0.0 W/m2
04:13 46.4 °F /  8 °C 31.6 °F /  -0.2 °C 30.46in /  1031.4hPa ENE 0.9mph /  1.4km/h 2.0mph /  3.2km/h 56% 0.00in /  0mm 0.0 W/m2
04:19 46.2 °F /  7.9 °C 31.5 °F /  -0.3 °C 30.46in /  1031.4hPa ENE 2.0mph /  3.2km/h 4.0mph /  6.4km/h 56% 0.00in /  0mm 0.0 W/m2
04:25 46.2 °F /  7.9 °C 31.5 °F /  -0.3 °C 30.46in /  1031.4hPa Calm   3.0mph /  4.8km/h 56% 0.00in /  0mm 0.0 W/m2
04:31 46.2 °F /  7.9 °C 30.9 °F /  -0.6 °C 30.46in /  1031.4hPa Calm   3.0mph /  4.8km/h 55% 0.00in /  0mm 0.0 W/m2
04:37 46.2 °F /  7.9 °C 31.5 °F /  -0.3 °C 30.46in /  1031.4hPa Calm   3.0mph /  4.8km/h 56% 0.00in /  0mm 0.0 W/m2
04:43 46.2 °F /  7.9 °C 31.5 °F /  -0.3 °C 30.46in /  1031.4hPa Calm   4.0mph /  6.4km/h 56% 0.00in /  0mm 0.0 W/m2
04:49 46.2 °F /  7.9 °C 31.5 °F /  -0.3 °C 30.46in /  1031.4hPa Calm   2.0mph /  3.2km/h 56% 0.00in /  0mm 0.0 W/m2
04:55 46.2 °F /  7.9 °C 31.5 °F /  -0.3 °C 30.47in /  1031.7hPa Calm   1.0mph /  1.6km/h 56% 0.00in /  0mm 0.0 W/m2
05:01 46.2 °F /  7.9 °C 31.5 °F /  -0.3 °C 30.47in /  1031.7hPa Calm   1.0mph /  1.6km/h 56% 0.00in /  0mm 0.0 W/m2
05:07 46.0 °F /  7.8 °C 31.3 °F /  -0.4 °C 30.47in /  1031.7hPa ENE 0.9mph /  1.4km/h 2.0mph /  3.2km/h 56% 0.00in /  0mm 0.0 W/m2
05:13 46.0 °F /  7.8 °C 31.3 °F /  -0.4 °C 30.47in /  1031.7hPa Calm   1.0mph /  1.6km/h 56% 0.00in /  0mm 0.0 W/m2
05:19 46.0 °F /  7.8 °C 31.3 °F /  -0.4 °C 30.47in /  1031.7hPa Calm   1.0mph /  1.6km/h 56% 0.00in /  0mm 0.0 W/m2
05:25 45.9 °F /  7.7 °C 31.1 °F /  -0.5 °C 30.47in /  1031.7hPa Calm   3.0mph /  4.8km/h 56% 0.00in /  0mm 0.0 W/m2
05:31 45.9 °F /  7.7 °C 31.1 °F /  -0.5 °C 30.47in /  1031.7hPa Calm   1.0mph /  1.6km/h 56% 0.00in /  0mm 0.0 W/m2
05:37 45.9 °F /  7.7 °C 31.1 °F /  -0.5 °C 30.47in /  1031.7hPa Calm   1.0mph /  1.6km/h 56% 0.00in /  0mm 0.0 W/m2
05:43 45.9 °F /  7.7 °C 31.1 °F /  -0.5 °C 30.48in /  1032.1hPa East 0.9mph /  1.4km/h 1.0mph /  1.6km/h 56% 0.00in /  0mm 0.0 W/m2
05:49 45.9 °F /  7.7 °C 31.1 °F /  -0.5 °C 30.48in /  1032.1hPa East 0.9mph /  1.4km/h 3.0mph /  4.8km/h 56% 0.00in /  0mm 0.0 W/m2
05:55 45.9 °F /  7.7 °C 31.1 °F /  -0.5 °C 30.49in /  1032.4hPa Calm   2.0mph /  3.2km/h 56% 0.00in /  0mm 0.0 W/m2
06:01 45.9 °F /  7.7 °C 31.1 °F /  -0.5 °C 30.49in /  1032.4hPa ESE 2.9mph /  4.7km/h 3.0mph /  4.8km/h 56% 0.00in /  0mm 0.0 W/m2
06:07 45.9 °F /  7.7 °C 31.1 °F /  -0.5 °C 30.49in /  1032.4hPa Calm   2.0mph /  3.2km/h 56% 0.00in /  0mm 0.0 W/m2
06:13 45.9 °F /  7.7 °C 31.1 °F /  -0.5 °C 30.49in /  1032.4hPa ENE 0.9mph /  1.4km/h 6.0mph /  9.7km/h 56% 0.00in /  0mm 0.0 W/m2
06:19 45.7 °F /  7.6 °C 31.3 °F /  -0.4 °C 30.50in /  1032.7hPa Calm   4.0mph /  6.4km/h 57% 0.00in /  0mm 0.0 W/m2
06:25 45.7 °F /  7.6 °C 31.3 °F /  -0.4 °C 30.49in /  1032.4hPa Calm   1.0mph /  1.6km/h 57% 0.00in /  0mm 5.0 W/m2
06:31 45.7 °F /  7.6 °C 31.3 °F /  -0.4 °C 30.50in /  1032.7hPa Calm   3.0mph /  4.8km/h 57% 0.00in /  0mm 9.0 W/m2
06:37 45.5 °F /  7.5 °C 31.6 °F /  -0.2 °C 30.50in /  1032.7hPa Calm   2.0mph /  3.2km/h 58% 0.00in /  0mm 11.0 W/m2
06:43 45.5 °F /  7.5 °C 31.6 °F /  -0.2 °C 30.50in /  1032.7hPa Calm   2.0mph /  3.2km/h 58% 0.00in /  0mm 12.0 W/m2
06:49 45.7 °F /  7.6 °C 31.8 °F /  -0.1 °C 30.50in /  1032.7hPa Calm   4.0mph /  6.4km/h 58% 0.00in /  0mm 12.0 W/m2
06:55 45.7 °F /  7.6 °C 31.8 °F /  -0.1 °C 30.50in /  1032.7hPa Calm   3.0mph /  4.8km/h 58% 0.00in /  0mm 14.0 W/m2
07:01 45.9 °F /  7.7 °C 32.0 °F /  0 °C 30.50in /  1032.7hPa ESE 2.0mph /  3.2km/h 4.0mph /  6.4km/h 58% 0.00in /  0mm 16.0 W/m2
07:03 45.9 °F /  7.7 °C 32.0 °F /  0 °C 30.50in /  1032.7hPa Calm   3.0mph /  4.8km/h 58% 0.00in /  0mm 16.0 W/m2
07:09 46.0 °F /  7.8 °C 32.0 °F /  0 °C 30.51in /  1033.1hPa Calm     58% 0.00in /  0mm 18.0 W/m2
07:15 46.4 °F /  8 °C 32.4 °F /  0.2 °C 30.51in /  1033.1hPa NE 0.9mph /  1.4km/h 4.0mph /  6.4km/h 58% 0.00in /  0mm 19.0 W/m2
07:21 46.9 °F /  8.3 °C 32.9 °F /  0.5 °C 30.51in /  1033.1hPa Calm   2.0mph /  3.2km/h 58% 0.00in /  0mm 21.0 W/m2
07:27 47.5 °F /  8.6 °C 33.4 °F /  0.8 °C 30.52in /  1033.4hPa Calm   1.0mph /  1.6km/h 58% 0.00in /  0mm 21.0 W/m2
07:33 47.8 °F /  8.8 °C 33.8 °F /  1 °C 30.52in /  1033.4hPa Calm   1.0mph /  1.6km/h 58% 0.00in /  0mm 23.0 W/m2
07:39 48.6 °F /  9.2 °C 34.9 °F /  1.6 °C 30.52in /  1033.4hPa Calm   1.0mph /  1.6km/h 59% 0.00in /  0mm 25.0 W/m2
07:45 49.1 °F /  9.5 °C 34.9 °F /  1.6 °C 30.52in /  1033.4hPa Calm     58% 0.00in /  0mm 25.0 W/m2
07:51 49.8 °F /  9.9 °C 34.7 °F /  1.5 °C 30.52in /  1033.4hPa Calm   1.0mph /  1.6km/h 56% 0.00in /  0mm 26.0 W/m2
07:57 50.9 °F /  10.5 °C 34.9 °F /  1.6 °C 30.51in /  1033.1hPa Calm   1.0mph /  1.6km/h 54% 0.00in /  0mm 26.0 W/m2
08:03 52.7 °F /  11.5 °C 35.1 °F /  1.7 °C 30.52in /  1033.4hPa East 0.9mph /  1.4km/h 3.0mph /  4.8km/h 51% 0.00in /  0mm 30.0 W/m2
08:09 54.9 °F /  12.7 °C 35.6 °F /  2 °C 30.51in /  1033.1hPa Calm   2.0mph /  3.2km/h 48% 0.00in /  0mm 360.0 W/m2
08:15 56.7 °F /  13.7 °C 36.7 °F /  2.6 °C 30.51in /  1033.1hPa NE 0.9mph /  1.4km/h 2.0mph /  3.2km/h 47% 0.00in /  0mm 380.0 W/m2
08:21 58.6 °F /  14.8 °C 36.1 °F /  2.3 °C 30.51in /  1033.1hPa East 0.9mph /  1.4km/h 2.0mph /  3.2km/h 43% 0.00in /  0mm 399.0 W/m2
08:27 60.4 °F /  15.8 °C 36.0 °F /  2.2 °C 30.51in /  1033.1hPa Calm   4.0mph /  6.4km/h 40% 0.00in /  0mm 418.0 W/m2
08:33 61.9 °F /  16.6 °C 36.0 °F /  2.2 °C 30.51in /  1033.1hPa Calm   5.0mph /  8km/h 38% 0.00in /  0mm 438.0 W/m2
08:39 63.0 °F /  17.2 °C 36.3 °F /  2.4 °C 30.51in /  1033.1hPa East 0.9mph /  1.4km/h 5.0mph /  8km/h 37% 0.00in /  0mm 455.0 W/m2
08:45 64.0 °F /  17.8 °C 37.2 °F /  2.9 °C 30.51in /  1033.1hPa ENE 0.9mph /  1.4km/h 1.0mph /  1.6km/h 37% 0.00in /  0mm 475.0 W/m2
08:53 64.9 °F /  18.3 °C 36.7 °F /  2.6 °C 30.51in /  1033.1hPa NNE 0.9mph /  1.4km/h 3.0mph /  4.8km/h 35% 0.00in /  0mm 496.0 W/m2
08:59 65.8 °F /  18.8 °C 37.4 °F /  3 °C 30.51in /  1033.1hPa Calm   6.0mph /  9.7km/h 35% 0.00in /  0mm 515.0 W/m2
09:05 66.4 °F /  19.1 °C 34.9 °F /  1.6 °C 30.51in /  1033.1hPa SSW 2.9mph /  4.7km/h 14.0mph /  22.5km/h 31% 0.00in /  0mm 531.0 W/m2
09:11 66.7 °F /  19.3 °C 35.1 °F /  1.7 °C 30.51in /  1033.1hPa NE 6.0mph /  9.7km/h 9.0mph /  14.5km/h 31% 0.00in /  0mm 548.0 W/m2
09:17 67.3 °F /  19.6 °C 34.7 °F /  1.5 °C 30.52in /  1033.4hPa ENE 2.0mph /  3.2km/h 8.0mph /  12.9km/h 30% 0.00in /  0mm 564.0 W/m2
09:23 67.3 °F /  19.6 °C 34.7 °F /  1.5 °C 30.52in /  1033.4hPa ENE 6.0mph /  9.7km/h 10.0mph /  16.1km/h 30% 0.00in /  0mm 577.0 W/m2
09:30 67.5 °F /  19.7 °C 34.9 °F /  1.6 °C 30.52in /  1033.4hPa NNE 4.9mph /  7.9km/h 9.0mph /  14.5km/h 30% 0.00in /  0mm 592.0 W/m2
09:36 67.6 °F /  19.8 °C 35.1 °F /  1.7 °C 30.52in /  1033.4hPa SE 4.9mph /  7.9km/h 14.0mph /  22.5km/h 30% 0.00in /  0mm 606.0 W/m2
09:42 67.6 °F /  19.8 °C 35.1 °F /  1.7 °C 30.52in /  1033.4hPa NNE 4.0mph /  6.4km/h 9.0mph /  14.5km/h 30% 0.00in /  0mm 619.0 W/m2
09:48 68.0 °F /  20 °C 35.4 °F /  1.9 °C 30.51in /  1033.1hPa NE 6.9mph /  11.1km/h 8.0mph /  12.9km/h 30% 0.00in /  0mm 628.0 W/m2
09:54 68.2 °F /  20.1 °C 35.6 °F /  2 °C 30.51in /  1033.1hPa East 2.0mph /  3.2km/h 6.0mph /  9.7km/h 30% 0.00in /  0mm 640.0 W/m2
10:00 68.4 °F /  20.2 °C 35.8 °F /  2.1 °C 30.51in /  1033.1hPa ENE 2.0mph /  3.2km/h 8.0mph /  12.9km/h 30% 0.00in /  0mm 652.0 W/m2
10:06 68.7 °F /  20.4 °C 36.9 °F /  2.7 °C 30.51in /  1033.1hPa Calm   6.0mph /  9.7km/h 31% 0.00in /  0mm 661.0 W/m2
10:12 68.7 °F /  20.4 °C 36.0 °F /  2.2 °C 30.51in /  1033.1hPa NE 4.9mph /  7.9km/h 7.0mph /  11.3km/h 30% 0.00in /  0mm 675.0 W/m2
10:18 69.1 °F /  20.6 °C 36.3 °F /  2.4 °C 30.50in /  1032.7hPa ENE 8.9mph /  14.3km/h 12.0mph /  19.3km/h 30% 0.00in /  0mm 682.0 W/m2
10:24 69.1 °F /  20.6 °C 36.3 °F /  2.4 °C 30.50in /  1032.7hPa NNE 4.0mph /  6.4km/h 7.0mph /  11.3km/h 30% 0.00in /  0mm 689.0 W/m2
10:30 69.3 °F /  20.7 °C 36.5 °F /  2.5 °C 30.50in /  1032.7hPa North 2.9mph /  4.7km/h 5.0mph /  8km/h 30% 0.00in /  0mm 696.0 W/m2
10:36 69.6 °F /  20.9 °C 36.9 °F /  2.7 °C 30.50in /  1032.7hPa East 4.9mph /  7.9km/h 10.0mph /  16.1km/h 30% 0.00in /  0mm 705.0 W/m2
10:42 69.8 °F /  21 °C 36.1 °F /  2.3 °C 30.49in /  1032.4hPa ENE 4.9mph /  7.9km/h 6.0mph /  9.7km/h 29% 0.00in /  0mm 714.0 W/m2
10:48 69.8 °F /  21 °C 36.1 °F /  2.3 °C 30.49in /  1032.4hPa Calm   7.0mph /  11.3km/h 29% 0.00in /  0mm 717.0 W/m2
10:55 70.0 °F /  21.1 °C 36.3 °F /  2.4 °C 30.49in /  1032.4hPa NE 4.0mph /  6.4km/h 11.0mph /  17.7km/h 29% 0.00in /  0mm 724.0 W/m2
11:01 70.0 °F /  21.1 °C 35.4 °F /  1.9 °C 30.48in /  1032.1hPa Calm   6.0mph /  9.7km/h 28% 0.00in /  0mm 724.0 W/m2
11:07 70.2 °F /  21.2 °C 36.5 °F /  2.5 °C 30.48in /  1032.1hPa NE 4.0mph /  6.4km/h 10.0mph /  16.1km/h 29% 0.00in /  0mm 733.0 W/m2
11:13 70.2 °F /  21.2 °C 36.5 °F /  2.5 °C 30.48in /  1032.1hPa ESE 2.9mph /  4.7km/h 14.0mph /  22.5km/h 29% 0.00in /  0mm 737.0 W/m2
11:19 70.2 °F /  21.2 °C 35.6 °F /  2 °C 30.48in /  1032.1hPa ESE 8.9mph /  14.3km/h 11.0mph /  17.7km/h 28% 0.00in /  0mm 740.0 W/m2
11:25 70.5 °F /  21.4 °C 35.8 °F /  2.1 °C 30.47in /  1031.7hPa East 4.0mph /  6.4km/h 10.0mph /  16.1km/h 28% 0.00in /  0mm 742.0 W/m2
11:31 70.9 °F /  21.6 °C 37.0 °F /  2.8 °C 30.47in /  1031.7hPa North 8.1mph /  13km/h 11.0mph /  17.7km/h 29% 0.00in /  0mm 745.0 W/m2
11:37 71.2 °F /  21.8 °C 36.5 °F /  2.5 °C 30.47in /  1031.7hPa ENE 0.9mph /  1.4km/h 6.0mph /  9.7km/h 28% 0.00in /  0mm 744.0 W/m2
11:44 71.4 °F /  21.9 °C 35.8 °F /  2.1 °C 30.46in /  1031.4hPa SE 2.9mph /  4.7km/h 12.0mph /  19.3km/h 27% 0.00in /  0mm 744.0 W/m2
11:50 71.4 °F /  21.9 °C 36.7 °F /  2.6 °C 30.46in /  1031.4hPa ESE 4.0mph /  6.4km/h 9.0mph /  14.5km/h 28% 0.00in /  0mm 744.0 W/m2
11:56 71.4 °F /  21.9 °C 35.8 °F /  2.1 °C 30.46in /  1031.4hPa East 4.9mph /  7.9km/h 12.0mph /  19.3km/h 27% 0.00in /  0mm 742.0 W/m2
12:02 71.4 °F /  21.9 °C 36.7 °F /  2.6 °C 30.45in /  1031hPa NNE 0.9mph /  1.4km/h 9.0mph /  14.5km/h 28% 0.00in /  0mm 740.0 W/m2
12:08 71.6 °F /  22 °C 35.8 °F /  2.1 °C 30.45in /  1031hPa NW 4.0mph /  6.4km/h 9.0mph /  14.5km/h 27% 0.00in /  0mm 737.0 W/m2
12:14 71.8 °F /  22.1 °C 36.0 °F /  2.2 °C 30.45in /  1031hPa ESE 0.9mph /  1.4km/h 7.0mph /  11.3km/h 27% 0.00in /  0mm 737.0 W/m2
12:20 72.0 °F /  22.2 °C 36.1 °F /  2.3 °C 30.44in /  1030.7hPa East 2.9mph /  4.7km/h 12.0mph /  19.3km/h 27% 0.00in /  0mm 731.0 W/m2
12:26 72.0 °F /  22.2 °C 36.1 °F /  2.3 °C 30.44in /  1030.7hPa ENE 0.9mph /  1.4km/h 10.0mph /  16.1km/h 27% 0.00in /  0mm 726.0 W/m2
12:32 72.0 °F /  22.2 °C 36.1 °F /  2.3 °C 30.43in /  1030.4hPa ENE 8.9mph /  14.3km/h 9.0mph /  14.5km/h 27% 0.00in /  0mm 717.0 W/m2
12:38 72.3 °F /  22.4 °C 36.5 °F /  2.5 °C 30.43in /  1030.4hPa NNW 8.1mph /  13km/h 8.1mph /  13km/h 27% 0.00in /  0mm 712.0 W/m2
12:45 72.3 °F /  22.4 °C 35.6 °F /  2 °C 30.43in /  1030.4hPa NW 0.9mph /  1.4km/h 7.0mph /  11.3km/h 26% 0.00in /  0mm 708.0 W/m2
12:51 72.5 °F /  22.5 °C 35.6 °F /  2 °C 30.42in /  1030hPa East 4.9mph /  7.9km/h 11.0mph /  17.7km/h 26% 0.00in /  0mm 700.0 W/m2
12:57 72.5 °F /  22.5 °C 35.6 °F /  2 °C 30.42in /  1030hPa North 4.0mph /  6.4km/h 9.0mph /  14.5km/h 26% 0.00in /  0mm 694.0 W/m2
13:03 72.7 °F /  22.6 °C 35.8 °F /  2.1 °C 30.42in /  1030hPa ENE 2.9mph /  4.7km/h 7.0mph /  11.3km/h 26% 0.00in /  0mm 686.0 W/m2
13:09 72.9 °F /  22.7 °C 36.0 °F /  2.2 °C 30.42in /  1030hPa North 2.9mph /  4.7km/h 9.0mph /  14.5km/h 26% 0.00in /  0mm 679.0 W/m2
13:15 72.9 °F /  22.7 °C 36.0 °F /  2.2 °C 30.41in /  1029.7hPa East 2.0mph /  3.2km/h 6.0mph /  9.7km/h 26% 0.00in /  0mm 668.0 W/m2
13:21 72.9 °F /  22.7 °C 35.1 °F /  1.7 °C 30.41in /  1029.7hPa NE 6.9mph /  11.1km/h 12.0mph /  19.3km/h 25% 0.00in /  0mm 657.0 W/m2
13:27 72.7 °F /  22.6 °C 35.8 °F /  2.1 °C 30.41in /  1029.7hPa NNE 0.9mph /  1.4km/h 9.0mph /  14.5km/h 26% 0.00in /  0mm 645.0 W/m2
13:34 72.7 °F /  22.6 °C 35.8 °F /  2.1 °C 30.41in /  1029.7hPa North 6.0mph /  9.7km/h 9.0mph /  14.5km/h 26% 0.00in /  0mm 635.0 W/m2
13:40 72.7 °F /  22.6 °C 34.9 °F /  1.6 °C 30.40in /  1029.3hPa North 0.9mph /  1.4km/h 9.0mph /  14.5km/h 25% 0.00in /  0mm 622.0 W/m2
13:46 72.9 °F /  22.7 °C 34.0 °F /  1.1 °C 30.40in /  1029.3hPa ENE 4.0mph /  6.4km/h 8.0mph /  12.9km/h 24% 0.00in /  0mm 612.0 W/m2
13:52 72.9 °F /  22.7 °C 35.1 °F /  1.7 °C 30.40in /  1029.3hPa East 4.0mph /  6.4km/h 8.0mph /  12.9km/h 25% 0.00in /  0mm 596.0 W/m2
13:58 72.9 °F /  22.7 °C 35.1 °F /  1.7 °C 30.40in /  1029.3hPa NE 4.0mph /  6.4km/h 7.0mph /  11.3km/h 25% 0.00in /  0mm 584.0 W/m2
14:04 72.9 °F /  22.7 °C 34.0 °F /  1.1 °C 30.40in /  1029.3hPa NNE 2.0mph /  3.2km/h 9.0mph /  14.5km/h 24% 0.00in /  0mm 570.0 W/m2
14:10 72.9 °F /  22.7 °C 32.9 °F /  0.5 °C 30.40in /  1029.3hPa ENE 0.9mph /  1.4km/h 4.0mph /  6.4km/h 23% 0.00in /  0mm 554.0 W/m2
14:16 72.9 °F /  22.7 °C 32.9 °F /  0.5 °C 30.40in /  1029.3hPa East 2.9mph /  4.7km/h 11.0mph /  17.7km/h 23% 0.00in /  0mm 540.0 W/m2
14:22 72.9 °F /  22.7 °C 34.0 °F /  1.1 °C 30.39in /  1029hPa NNW 6.0mph /  9.7km/h 10.0mph /  16.1km/h 24% 0.00in /  0mm 524.0 W/m2
14:29 73.0 °F /  22.8 °C 35.1 °F /  1.7 °C 30.39in /  1029hPa NNW 4.0mph /  6.4km/h 9.0mph /  14.5km/h 25% 0.00in /  0mm 504.0 W/m2
14:35 73.0 °F /  22.8 °C 35.1 °F /  1.7 °C 30.39in /  1029hPa SE 0.9mph /  1.4km/h 5.0mph /  8km/h 25% 0.00in /  0mm 489.0 W/m2
14:41 73.2 °F /  22.9 °C 34.3 °F /  1.3 °C 30.39in /  1029hPa SE 0.9mph /  1.4km/h 7.0mph /  11.3km/h 24% 0.00in /  0mm 471.0 W/m2
14:47 73.2 °F /  22.9 °C 34.3 °F /  1.3 °C 30.39in /  1029hPa North 4.0mph /  6.4km/h 7.0mph /  11.3km/h 24% 0.00in /  0mm 454.0 W/m2
14:53 73.2 °F /  22.9 °C 34.3 °F /  1.3 °C 30.39in /  1029hPa NNE 2.0mph /  3.2km/h 7.0mph /  11.3km/h 24% 0.00in /  0mm 436.0 W/m2
14:59 73.2 °F /  22.9 °C 34.3 °F /  1.3 °C 30.40in /  1029.3hPa NNE 4.9mph /  7.9km/h 10.0mph /  16.1km/h 24% 0.00in /  0mm 415.0 W/m2
15:05 73.0 °F /  22.8 °C 34.2 °F /  1.2 °C 30.39in /  1029hPa ESE 11.0mph /  17.7km/h 11.0mph /  17.7km/h 24% 0.00in /  0mm 397.0 W/m2
15:12 72.5 °F /  22.5 °C 33.6 °F /  0.9 °C 30.40in /  1029.3hPa NNE 2.9mph /  4.7km/h 9.0mph /  14.5km/h 24% 0.00in /  0mm 376.0 W/m2
15:18 72.1 °F /  22.3 °C 34.3 °F /  1.3 °C 30.40in /  1029.3hPa NE 2.9mph /  4.7km/h 8.0mph /  12.9km/h 25% 0.00in /  0mm 357.0 W/m2
15:24 72.0 °F /  22.2 °C 34.2 °F /  1.2 °C 30.39in /  1029hPa SE 0.9mph /  1.4km/h 3.0mph /  4.8km/h 25% 0.00in /  0mm 338.0 W/m2
15:30 71.8 °F /  22.1 °C 34.0 °F /  1.1 °C 30.40in /  1029.3hPa NE 4.9mph /  7.9km/h 12.0mph /  19.3km/h 25% 0.00in /  0mm 58.0 W/m2
15:36 71.8 °F /  22.1 °C 34.0 °F /  1.1 °C 30.40in /  1029.3hPa ENE 2.0mph /  3.2km/h 5.0mph /  8km/h 25% 0.00in /  0mm 42.0 W/m2
15:42 71.4 °F /  21.9 °C 33.8 °F /  1 °C 30.40in /  1029.3hPa East 0.9mph /  1.4km/h 6.0mph /  9.7km/h 25% 0.00in /  0mm 39.0 W/m2
15:48 71.1 °F /  21.7 °C 33.4 °F /  0.8 °C 30.40in /  1029.3hPa NE 0.9mph /  1.4km/h 6.0mph /  9.7km/h 25% 0.00in /  0mm 37.0 W/m2
15:54 70.9 °F /  21.6 °C 34.3 °F /  1.3 °C 30.39in /  1029hPa NNE 2.0mph /  3.2km/h 7.0mph /  11.3km/h 26% 0.00in /  0mm 33.0 W/m2
16:01 70.5 °F /  21.4 °C 34.0 °F /  1.1 °C 30.39in /  1029hPa North 2.9mph /  4.7km/h 5.0mph /  8km/h 26% 0.00in /  0mm 30.0 W/m2
16:07 70.2 °F /  21.2 °C 33.6 °F /  0.9 °C 30.39in /  1029hPa NE 2.9mph /  4.7km/h 7.0mph /  11.3km/h 26% 0.00in /  0mm 26.0 W/m2
16:13 70.0 °F /  21.1 °C 33.4 °F /  0.8 °C 30.40in /  1029.3hPa NE 2.9mph /  4.7km/h 3.0mph /  4.8km/h 26% 0.00in /  0mm 23.0 W/m2
16:19 69.6 °F /  20.9 °C 33.3 °F /  0.7 °C 30.40in /  1029.3hPa SE 4.0mph /  6.4km/h 5.0mph /  8km/h 26% 0.00in /  0mm 21.0 W/m2
16:25 69.3 °F /  20.7 °C 32.9 °F /  0.5 °C 30.40in /  1029.3hPa East 6.0mph /  9.7km/h 7.0mph /  11.3km/h 26% 0.00in /  0mm 21.0 W/m2
16:31 69.1 °F /  20.6 °C 33.6 °F /  0.9 °C 30.40in /  1029.3hPa Calm   2.0mph /  3.2km/h 27% 0.00in /  0mm 19.0 W/m2
16:37 68.9 °F /  20.5 °C 33.6 °F /  0.9 °C 30.40in /  1029.3hPa ENE 0.9mph /  1.4km/h 5.0mph /  8km/h 27% 0.00in /  0mm 18.0 W/m2
16:43 68.5 °F /  20.3 °C 33.3 °F /  0.7 °C 30.40in /  1029.3hPa Calm   3.0mph /  4.8km/h 27% 0.00in /  0mm 18.0 W/m2
16:50 68.4 °F /  20.2 °C 33.1 °F /  0.6 °C 30.40in /  1029.3hPa Calm   3.0mph /  4.8km/h 27% 0.00in /  0mm 14.0 W/m2
16:56 67.8 °F /  19.9 °C 33.4 °F /  0.8 °C 30.41in /  1029.7hPa NNE 2.0mph /  3.2km/h 3.0mph /  4.8km/h 28% 0.00in /  0mm 12.0 W/m2
17:02 67.6 °F /  19.8 °C 33.4 °F /  0.8 °C 30.41in /  1029.7hPa Calm   3.0mph /  4.8km/h 28% 0.00in /  0mm 11.0 W/m2
17:08 67.3 °F /  19.6 °C 34.0 °F /  1.1 °C 30.41in /  1029.7hPa Calm   1.0mph /  1.6km/h 29% 0.00in /  0mm 7.0 W/m2
17:14 66.6 °F /  19.2 °C 33.3 °F /  0.7 °C 30.42in /  1030hPa Calm   1.0mph /  1.6km/h 29% 0.00in /  0mm 5.0 W/m2
17:20 66.0 °F /  18.9 °C 33.6 °F /  0.9 °C 30.42in /  1030hPa Calm     30% 0.00in /  0mm 0.0 W/m2
17:26 65.7 °F /  18.7 °C 33.4 °F /  0.8 °C 30.42in /  1030hPa Calm     30% 0.00in /  0mm 0.0 W/m2
17:32 64.9 °F /  18.3 °C 33.6 °F /  0.9 °C 30.42in /  1030hPa Calm     31% 0.00in /  0mm 0.0 W/m2
17:39 64.2 °F /  17.9 °C 33.8 °F /  1 °C 30.42in /  1030hPa Calm     32% 0.00in /  0mm 0.0 W/m2
17:45 63.3 °F /  17.4 °C 33.8 °F /  1 °C 30.42in /  1030hPa Calm     33% 0.00in /  0mm 0.0 W/m2
17:51 62.8 °F /  17.1 °C 34.0 °F /  1.1 °C 30.42in /  1030hPa Calm     34% 0.00in /  0mm 0.0 W/m2
17:57 62.1 °F /  16.7 °C 34.2 °F /  1.2 °C 30.42in /  1030hPa Calm     35% 0.00in /  0mm 0.0 W/m2
18:03 61.2 °F /  16.2 °C 34.0 °F /  1.1 °C 30.43in /  1030.4hPa Calm     36% 0.00in /  0mm 0.0 W/m2
18:09 60.4 °F /  15.8 °C 34.0 °F /  1.1 °C 30.43in /  1030.4hPa Calm     37% 0.00in /  0mm 0.0 W/m2
18:15 59.7 °F /  15.4 °C 34.0 °F /  1.1 °C 30.44in /  1030.7hPa Calm     38% 0.00in /  0mm 0.0 W/m2
18:21 59.4 °F /  15.2 °C 34.3 °F /  1.3 °C 30.44in /  1030.7hPa Calm     39% 0.00in /  0mm 0.0 W/m2
18:28 58.8 °F /  14.9 °C 34.0 °F /  1.1 °C 30.44in /  1030.7hPa Calm     39% 0.00in /  0mm 0.0 W/m2
18:34 58.5 °F /  14.7 °C 34.2 °F /  1.2 °C 30.44in /  1030.7hPa Calm     40% 0.00in /  0mm 0.0 W/m2
18:42 57.7 °F /  14.3 °C 33.6 °F /  0.9 °C 30.45in /  1031hPa Calm     40% 0.00in /  0mm 0.0 W/m2
18:48 57.6 °F /  14.2 °C 34.0 °F /  1.1 °C 30.45in /  1031hPa Calm     41% 0.00in /  0mm 0.0 W/m2
18:54 57.0 °F /  13.9 °C 33.6 °F /  0.9 °C 30.45in /  1031hPa East 0.9mph /  1.4km/h 1.0mph /  1.6km/h 41% 0.00in /  0mm 0.0 W/m2
19:00 56.7 °F /  13.7 °C 33.8 °F /  1 °C 30.45in /  1031hPa Calm     42% 0.00in /  0mm 0.0 W/m2
19:06 56.5 °F /  13.6 °C 33.6 °F /  0.9 °C 30.46in /  1031.4hPa Calm     42% 0.00in /  0mm 0.0 W/m2
19:12 55.9 °F /  13.3 °C 33.3 °F /  0.7 °C 30.46in /  1031.4hPa Calm     42% 0.00in /  0mm 0.0 W/m2
19:19 55.8 °F /  13.2 °C 33.1 °F /  0.6 °C 30.46in /  1031.4hPa Calm   2.0mph /  3.2km/h 42% 0.00in /  0mm 0.0 W/m2
19:25 55.6 °F /  13.1 °C 33.4 °F /  0.8 °C 30.46in /  1031.4hPa Calm   2.0mph /  3.2km/h 43% 0.00in /  0mm 0.0 W/m2
19:31 55.2 °F /  12.9 °C 33.1 °F /  0.6 °C 30.46in /  1031.4hPa ENE 0.9mph /  1.4km/h 2.0mph /  3.2km/h 43% 0.00in /  0mm 0.0 W/m2
19:37 55.2 °F /  12.9 °C 33.1 °F /  0.6 °C 30.46in /  1031.4hPa ENE 0.9mph /  1.4km/h 3.0mph /  4.8km/h 43% 0.00in /  0mm 0.0 W/m2
19:43 55.0 °F /  12.8 °C 33.4 °F /  0.8 °C 30.46in /  1031.4hPa Calm   3.0mph /  4.8km/h 44% 0.00in /  0mm 0.0 W/m2
19:49 54.9 °F /  12.7 °C 33.4 °F /  0.8 °C 30.46in /  1031.4hPa ENE 0.9mph /  1.4km/h 2.0mph /  3.2km/h 44% 0.00in /  0mm 0.0 W/m2
19:55 54.7 °F /  12.6 °C 33.8 °F /  1 °C 30.46in /  1031.4hPa Calm   3.0mph /  4.8km/h 45% 0.00in /  0mm 0.0 W/m2
20:02 54.3 °F /  12.4 °C 33.4 °F /  0.8 °C 30.46in /  1031.4hPa Calm   2.0mph /  3.2km/h 45% 0.00in /  0mm 0.0 W/m2
20:08 54.1 °F /  12.3 °C 33.3 °F /  0.7 °C 30.46in /  1031.4hPa ENE 0.9mph /  1.4km/h 1.0mph /  1.6km/h 45% 0.00in /  0mm 0.0 W/m2
20:14 54.0 °F /  12.2 °C 33.6 °F /  0.9 °C 30.47in /  1031.7hPa Calm   2.0mph /  3.2km/h 46% 0.00in /  0mm 0.0 W/m2
20:20 53.8 °F /  12.1 °C 33.4 °F /  0.8 °C 30.46in /  1031.4hPa Calm   3.0mph /  4.8km/h 46% 0.00in /  0mm 0.0 W/m2
20:26 53.6 °F /  12 °C 33.3 °F /  0.7 °C 30.47in /  1031.7hPa Calm   2.0mph /  3.2km/h 46% 0.00in /  0mm 0.0 W/m2
20:32 53.4 °F /  11.9 °C 33.1 °F /  0.6 °C 30.47in /  1031.7hPa Calm   3.0mph /  4.8km/h 46% 0.00in /  0mm 0.0 W/m2
20:39 53.2 °F /  11.8 °C 33.1 °F /  0.6 °C 30.47in /  1031.7hPa Calm   2.0mph /  3.2km/h 46% 0.00in /  0mm 0.0 W/m2
20:45 53.1 °F /  11.7 °C 33.4 °F /  0.8 °C 30.47in /  1031.7hPa East 0.9mph /  1.4km/h 2.0mph /  3.2km/h 47% 0.00in /  0mm 0.0 W/m2
20:51 53.1 °F /  11.7 °C 33.4 °F /  0.8 °C 30.47in /  1031.7hPa Calm   2.0mph /  3.2km/h 47% 0.00in /  0mm 0.0 W/m2
20:53 53.1 °F /  11.7 °C 33.4 °F /  0.8 °C 30.47in /  1031.7hPa Calm   3.0mph /  4.8km/h 47% 0.00in /  0mm 0.0 W/m2
20:59 52.9 °F /  11.6 °C 33.3 °F /  0.7 °C 30.47in /  1031.7hPa East 0.9mph /  1.4km/h 2.0mph /  3.2km/h 47% 0.00in /  0mm 0.0 W/m2
21:05 52.7 °F /  11.5 °C 33.1 °F /  0.6 °C 30.47in /  1031.7hPa Calm   2.0mph /  3.2km/h 47% 0.00in /  0mm 0.0 W/m2
21:11 52.5 °F /  11.4 °C 33.4 °F /  0.8 °C 30.47in /  1031.7hPa Calm   2.0mph /  3.2km/h 48% 0.00in /  0mm 0.0 W/m2
21:17 52.3 °F /  11.3 °C 33.3 °F /  0.7 °C 30.47in /  1031.7hPa Calm   1.0mph /  1.6km/h 48% 0.00in /  0mm 0.0 W/m2
21:23 52.2 °F /  11.2 °C 33.1 °F /  0.6 °C 30.47in /  1031.7hPa Calm   1.0mph /  1.6km/h 48% 0.00in /  0mm 0.0 W/m2
21:29 52.0 °F /  11.1 °C 33.4 °F /  0.8 °C 30.47in /  1031.7hPa Calm   2.0mph /  3.2km/h 49% 0.00in /  0mm 0.0 W/m2
21:36 51.8 °F /  11 °C 33.3 °F /  0.7 °C 30.47in /  1031.7hPa Calm   2.0mph /  3.2km/h 49% 0.00in /  0mm 0.0 W/m2
21:42 51.6 °F /  10.9 °C 33.1 °F /  0.6 °C 30.47in /  1031.7hPa Calm   2.0mph /  3.2km/h 49% 0.00in /  0mm 0.0 W/m2
21:48 51.6 °F /  10.9 °C 33.1 °F /  0.6 °C 30.47in /  1031.7hPa Calm   1.0mph /  1.6km/h 49% 0.00in /  0mm 0.0 W/m2
21:54 51.6 °F /  10.9 °C 33.6 °F /  0.9 °C 30.47in /  1031.7hPa Calm   2.0mph /  3.2km/h 50% 0.00in /  0mm 0.0 W/m2
22:00 51.4 °F /  10.8 °C 33.4 °F /  0.8 °C 30.47in /  1031.7hPa Calm   2.0mph /  3.2km/h 50% 0.00in /  0mm 0.0 W/m2
22:04 51.3 °F /  10.7 °C 33.3 °F /  0.7 °C 30.47in /  1031.7hPa ESE 0.9mph /  1.4km/h 1.0mph /  1.6km/h 50% 0.00in /  0mm 0.0 W/m2
22:10 51.3 °F /  10.7 °C 33.3 °F /  0.7 °C 30.47in /  1031.7hPa Calm   2.0mph /  3.2km/h 50% 0.00in /  0mm 0.0 W/m2
22:17 51.1 °F /  10.6 °C 33.6 °F /  0.9 °C 30.47in /  1031.7hPa Calm   1.0mph /  1.6km/h 51% 0.00in /  0mm 0.0 W/m2
22:23 50.9 °F /  10.5 °C 33.4 °F /  0.8 °C 30.47in /  1031.7hPa Calm   3.0mph /  4.8km/h 51% 0.00in /  0mm 0.0 W/m2
22:29 50.7 °F /  10.4 °C 33.3 °F /  0.7 °C 30.47in /  1031.7hPa Calm   2.0mph /  3.2km/h 51% 0.00in /  0mm 0.0 W/m2
22:35 50.5 °F /  10.3 °C 33.6 °F /  0.9 °C 30.47in /  1031.7hPa East 0.9mph /  1.4km/h 2.0mph /  3.2km/h 52% 0.00in /  0mm 0.0 W/m2
22:41 50.5 °F /  10.3 °C 33.6 °F /  0.9 °C 30.47in /  1031.7hPa Calm   3.0mph /  4.8km/h 52% 0.00in /  0mm 0.0 W/m2
22:47 50.4 °F /  10.2 °C 33.8 °F /  1 °C 30.47in /  1031.7hPa Calm   1.0mph /  1.6km/h 53% 0.00in /  0mm 0.0 W/m2
22:53 50.2 °F /  10.1 °C 33.6 °F /  0.9 °C 30.47in /  1031.7hPa Calm   4.0mph /  6.4km/h 53% 0.00in /  0mm 0.0 W/m2
23:00 50.2 °F /  10.1 °C 33.6 °F /  0.9 °C 30.47in /  1031.7hPa Calm   1.0mph /  1.6km/h 53% 0.00in /  0mm 0.0 W/m2
23:06 50.2 °F /  10.1 °C 33.6 °F /  0.9 °C 30.47in /  1031.7hPa Calm   3.0mph /  4.8km/h 53% 0.00in /  0mm 0.0 W/m2
23:12 50.0 °F /  10 °C 33.6 °F /  0.9 °C 30.47in /  1031.7hPa ENE 0.9mph /  1.4km/h 3.0mph /  4.8km/h 53% 0.00in /  0mm 0.0 W/m2
23:18 50.0 °F /  10 °C 33.6 °F /  0.9 °C 30.46in /  1031.4hPa Calm   2.0mph /  3.2km/h 53% 0.00in /  0mm 0.0 W/m2
23:24 50.0 °F /  10 °C 33.6 °F /  0.9 °C 30.46in /  1031.4hPa Calm   1.0mph /  1.6km/h 53% 0.00in /  0mm 0.0 W/m2
23:30 49.8 °F /  9.9 °C 33.4 °F /  0.8 °C 30.46in /  1031.4hPa Calm   2.0mph /  3.2km/h 53% 0.00in /  0mm 0.0 W/m2
23:36 49.8 °F /  9.9 °C 33.4 °F /  0.8 °C 30.46in /  1031.4hPa Calm   3.0mph /  4.8km/h 53% 0.00in /  0mm 0.0 W/m2
23:42 49.6 °F /  9.8 °C 33.6 °F /  0.9 °C 30.46in /  1031.4hPa Calm   1.0mph /  1.6km/h 54% 0.00in /  0mm 0.0 W/m2
23:46 49.6 °F /  9.8 °C 33.6 °F /  0.9 °C 30.46in /  1031.4hPa Calm     54% 0.00in /  0mm 0.0 W/m2
23:52 49.5 °F /  9.7 °C 33.4 °F /  0.8 °C 30.46in /  1031.4hPa Calm   1.0mph /  1.6km/h 54% 0.00in /  0mm 0.0 W/m2
23:58 49.3 °F /  9.6 °C 33.3 °F /  0.7 °C 30.45in /  1031hPa ENE 0.9mph /  1.4km/h 3.0mph /  4.8km/h 54% 0.00in /  0mm 0.0 W/m2
Olympia, Windhoek, Namibia
Compliments of Weather Underground - 3 mb